Time;durP1;ratioP1;P1;durP2;ratioP2;P2;SDS_P1;SDS_P2;PMS_P1;PMS_P2;Temp;Humidity;BMP_temperature;BMP_pressure;BME280_temperature;BME280_humidity;BME280_pressure;Samples;Min_cycle;Max_cycle;Signal;HPM_P1;HPM_P2
2023/05/01 00:00:30;;;;;;;4.90;1.23;;;;;;;12.44;63.24;101876.66;4975590;28;97332;-32
2023/05/01 00:02:56;;;;;;;2.15;1.10;;;;;;;12.44;63.56;101882.09;4975263;28;96599;-31
2023/05/01 00:05:21;;;;;;;1.05;0.98;;;;;;;12.43;62.74;101876.75;4975493;28;96772;-32
2023/05/01 00:07:46;;;;;;;1.80;1.08;;;;;;;12.46;62.73;101869.28;4975209;28;97462;-32
2023/05/01 00:10:12;;;;;;;1.13;0.75;;;;;;;12.46;63.39;101868.41;4975073;28;98017;-32
2023/05/01 00:12:37;;;;;;;1.55;1.13;;;;;;;12.45;62.66;101861.25;4975235;28;96477;-32
2023/05/01 00:15:02;;;;;;;2.53;1.10;;;;;;;12.43;62.56;101866.75;4975137;28;96848;-31
2023/05/01 00:17:29;;;;;;;1.20;1.08;;;;;;;12.44;63.18;101868.53;4975263;28;98248;-32
2023/05/01 00:19:55;;;;;;;1.58;0.88;;;;;;;12.46;62.71;101860.25;4973595;28;101003;-31
2023/05/01 00:22:20;;;;;;;3.53;1.52;;;;;;;12.43;62.63;101865.88;4975063;28;96588;-32
2023/05/01 00:24:47;;;;;;;2.13;1.20;;;;;;;12.45;62.42;101862.13;4975347;28;96824;-33
2023/05/01 00:27:13;;;;;;;1.88;1.38;;;;;;;12.48;62.52;101861.94;4975027;28;98011;-31
2023/05/01 00:29:38;;;;;;;1.42;1.02;;;;;;;12.48;62.74;101851.06;4974680;28;99505;-32
2023/05/01 00:32:04;;;;;;;2.67;1.63;;;;;;;12.47;62.43;101854.75;4974285;28;96970;-32
2023/05/01 00:34:29;;;;;;;1.88;1.25;;;;;;;12.52;62.45;101859.94;4974901;28;96830;-31
2023/05/01 00:36:55;;;;;;;2.30;1.13;;;;;;;12.51;62.93;101844.59;4974603;28;99159;-31
2023/05/01 00:39:20;;;;;;;3.45;1.30;;;;;;;12.50;62.55;101846.44;4974551;28;99237;-31
2023/05/01 00:41:45;;;;;;;1.38;0.98;;;;;;;12.52;62.44;101847.22;4974923;28;100693;-31
2023/05/01 00:44:11;;;;;;;2.17;1.23;;;;;;;12.52;62.68;101846.38;4974713;28;96830;-31
2023/05/01 00:46:37;;;;;;;4.20;1.20;;;;;;;12.50;62.98;101835.56;4974055;28;99463;-31
2023/05/01 00:49:03;;;;;;;1.30;1.15;;;;;;;12.49;62.39;101825.66;4973566;28;101352;-31
2023/05/01 00:51:28;;;;;;;2.85;1.17;;;;;;;12.49;62.53;101822.06;4974778;28;96647;-34
2023/05/01 00:53:55;;;;;;;1.35;1.00;;;;;;;12.50;62.57;101819.25;4972463;28;96925;-32
2023/05/01 00:56:21;;;;;;;7.55;1.40;;;;;;;12.48;62.72;101813.03;4972375;28;100709;-33
2023/05/01 00:58:52;;;;;;;2.13;1.20;;;;;;;12.45;63.49;101802.31;4973065;28;101148;-34
2023/05/01 01:01:19;;;;;;;1.55;1.13;;;;;;;12.48;63.14;101814.88;4975133;28;96462;-32
2023/05/01 01:03:44;;;;;;;1.92;1.10;;;;;;;12.46;63.54;101803.19;4974624;28;96732;-32
2023/05/01 01:06:37;;;;;;;2.50;1.25;;;;;;;12.47;63.10;101802.25;4974493;28;97908;-32
2023/05/01 01:09:17;;;;;;;3.00;1.38;;;;;;;12.44;63.81;101795.16;4974270;28;97479;-32
2023/05/01 01:11:50;;;;;;;4.38;1.35;;;;;;;12.40;63.75;101790.84;4974396;28;96430;-31
2023/05/01 01:14:26;;;;;;;3.03;1.13;;;;;;;12.39;63.80;101793.63;4973275;28;96684;-31
2023/05/01 01:17:16;;;;;;;2.33;1.40;;;;;;;12.38;64.57;101791.88;4972752;28;100783;-32
2023/05/01 01:20:22;;;;;;;2.25;1.10;;;;;;;12.37;63.95;101787.38;4972536;28;101487;-32
2023/05/01 01:22:57;;;;;;;2.25;1.38;;;;;;;12.36;63.82;101778.38;4972718;28;96947;-31
2023/05/01 01:25:40;;;;;;;2.72;1.30;;;;;;;12.34;64.29;101777.56;4972782;28;96875;-32
2023/05/01 01:28:06;;;;;;;1.55;0.73;;;;;;;12.32;64.48;101771.34;4973983;28;99445;-31
2023/05/01 01:30:34;;;;;;;1.77;1.20;;;;;;;12.32;64.29;101764.09;4973718;28;99733;-32
2023/05/01 01:33:27;;;;;;;2.15;1.45;;;;;;;12.30;64.20;101766.00;4972531;28;96677;-32
2023/05/01 01:35:56;;;;;;;2.15;1.27;;;;;;;12.24;64.49;101768.16;4955788;28;107378;-32
2023/05/01 01:38:45;;;;;;;2.03;1.27;;;;;;;12.22;64.97;101760.09;4972264;28;101296;-32
2023/05/01 01:41:22;;;;;;;2.05;1.33;;;;;;;12.21;64.89;101766.50;4972663;28;100822;-32
2023/05/01 01:43:59;;;;;;;2.15;1.30;;;;;;;12.18;64.30;101760.34;4972487;28;96653;-32
2023/05/01 01:46:26;;;;;;;1.60;1.13;;;;;;;12.16;64.94;101752.28;4972216;28;96801;-32
2023/05/01 01:48:54;;;;;;;2.38;1.27;;;;;;;12.17;65.01;101756.75;4971903;28;101034;-33
2023/05/01 01:51:21;;;;;;;1.58;1.15;;;;;;;12.14;65.10;101750.63;4973440;28;99281;-33
2023/05/01 01:53:52;;;;;;;2.35;1.27;;;;;;;12.14;65.03;101746.06;4972205;28;96607;-32
2023/05/01 01:56:20;;;;;;;2.00;1.25;;;;;;;12.16;64.82;101755.00;4972269;28;96752;-32
2023/05/01 01:58:47;;;;;;;3.58;1.60;;;;;;;12.12;64.83;101742.53;4971883;28;101038;-33
2023/05/01 02:01:14;;;;;;;1.45;1.00;;;;;;;12.10;64.86;101742.63;4971934;28;101054;-32
2023/05/01 02:03:40;;;;;;;2.25;1.13;;;;;;;12.11;64.97;101738.09;4972139;28;96746;-32
2023/05/01 02:06:07;;;;;;;1.50;1.10;;;;;;;12.08;64.94;101736.41;4973828;28;96821;-32
2023/05/01 02:08:35;;;;;;;1.45;1.05;;;;;;;12.06;65.17;101730.19;4971864;28;101068;-32
2023/05/01 02:11:02;;;;;;;1.30;1.05;;;;;;;12.07;65.33;101736.47;4971793;28;100794;-33
2023/05/01 02:13:30;;;;;;;1.63;1.13;;;;;;;12.03;65.89;101721.31;4971290;28;96938;-32
2023/05/01 02:15:57;;;;;;;1.83;1.10;;;;;;;12.04;65.45;101728.50;4971955;28;96970;-32
2023/05/01 02:18:25;;;;;;;2.25;1.48;;;;;;;12.02;65.68;101719.56;4971884;28;102543;-34
2023/05/01 02:20:51;;;;;;;1.38;0.93;;;;;;;12.05;65.55;101728.41;4972804;28;99312;-32
2023/05/01 02:23:17;;;;;;;1.83;1.27;;;;;;;12.02;66.07;101719.56;4971830;28;96565;-32
2023/05/01 02:25:44;;;;;;;1.55;1.10;;;;;;;12.01;66.53;101712.38;4973317;28;96771;-32
2023/05/01 02:28:16;;;;;;;2.72;1.23;;;;;;;12.01;65.88;101721.41;4971738;28;99067;-31
2023/05/01 02:30:42;;;;;;;1.85;1.13;;;;;;;11.96;66.50;101709.88;4971667;28;101166;-32
2023/05/01 02:33:07;;;;;;;3.15;1.50;;;;;;;11.92;66.40;101704.69;4972933;28;96642;-31
2023/05/01 02:35:46;;;;;;;2.65;1.25;;;;;;;11.94;66.56;101713.66;4972968;28;96838;-31
2023/05/01 02:38:12;;;;;;;2.40;1.20;;;;;;;11.92;66.70;101711.03;4972645;28;97981;-31
2023/05/01 02:40:39;;;;;;;1.95;1.20;;;;;;;11.88;67.12;101704.00;4971411;28;100629;-31
2023/05/01 02:43:08;;;;;;;2.25;1.30;;;;;;;11.88;66.55;101704.00;4971612;28;96578;-31
2023/05/01 02:45:37;;;;;;;1.48;1.00;;;;;;;11.86;66.70;101701.31;4971489;28;96828;-32
2023/05/01 02:48:05;;;;;;;1.70;1.20;;;;;;;11.84;66.63;101692.38;4971025;28;98876;-31
2023/05/01 02:50:31;;;;;;;3.60;1.35;;;;;;;11.80;66.33;101695.38;4972838;28;97249;-34
2023/05/01 02:52:57;;;;;;;1.80;1.30;;;;;;;11.78;66.30;101690.00;4971454;28;96557;-32
2023/05/01 02:55:23;;;;;;;2.28;1.10;;;;;;;11.78;66.85;101692.72;4971716;28;97014;-33
2023/05/01 02:57:51;;;;;;;3.00;1.30;;;;;;;11.75;66.73;101684.75;4972687;28;97473;-32
2023/05/01 03:00:17;;;;;;;1.45;1.02;;;;;;;11.72;67.27;101684.91;4972712;28;97762;-33
2023/05/01 03:02:43;;;;;;;2.42;1.60;;;;;;;11.72;67.10;101679.47;4972157;28;96634;-32
2023/05/01 03:05:08;;;;;;;2.88;1.27;;;;;;;11.72;67.29;101681.31;4971184;28;96886;-32
2023/05/01 03:07:34;;;;;;;2.03;1.30;;;;;;;11.67;67.31;101674.28;4972631;28;98768;-33
2023/05/01 03:10:03;;;;;;;3.25;1.35;;;;;;;11.65;67.11;101673.47;4972512;28;97362;-33
2023/05/01 03:12:29;;;;;;;1.85;1.30;;;;;;;11.62;67.48;101670.94;4971280;28;96715;-33
2023/05/01 03:14:55;;;;;;;4.18;1.30;;;;;;;11.64;67.36;101673.59;4971281;28;96815;-32
2023/05/01 03:17:20;;;;;;;3.38;1.52;;;;;;;11.59;67.50;101659.38;4971685;28;99453;-31
2023/05/01 03:19:47;;;;;;;1.95;1.30;;;;;;;11.61;67.14;101658.34;4971212;28;100877;-31
2023/05/01 03:22:13;;;;;;;1.85;1.25;;;;;;;11.63;67.47;101652.81;4972401;28;96568;-33
2023/05/01 03:24:38;;;;;;;1.45;1.02;;;;;;;11.61;67.50;101658.34;4972302;28;96554;-31
2023/05/01 03:27:04;;;;;;;1.50;1.15;;;;;;;11.59;67.33;101665.69;4971659;28;99660;-32
2023/05/01 03:29:30;;;;;;;1.83;1.20;;;;;;;11.57;67.09;101655.88;4972351;28;97767;-33
2023/05/01 03:31:56;;;;;;;1.52;1.02;;;;;;;11.59;67.36;101654.81;4972116;28;96890;-31
2023/05/01 03:34:22;;;;;;;2.00;1.40;;;;;;;11.56;68.00;101637.81;4972391;28;96758;-32
2023/05/01 03:36:47;;;;;;;3.80;1.35;;;;;;;11.56;67.39;101637.81;4970661;28;101038;-32
2023/05/01 03:39:13;;;;;;;2.03;0.82;;;;;;;11.58;67.95;101647.63;4972061;28;97857;-34
2023/05/01 03:41:38;;;;;;;3.30;1.23;;;;;;;11.56;67.90;101640.53;4972186;28;96636;-32
2023/05/01 03:44:03;;;;;;;2.60;1.35;;;;;;;11.51;67.90;101629.91;4972628;28;97162;-31
2023/05/01 03:46:29;;;;;;;1.67;1.10;;;;;;;11.55;68.09;101645.09;4971530;28;97994;-31
2023/05/01 03:48:54;;;;;;;2.80;1.27;;;;;;;11.55;67.69;101633.38;4972294;28;97891;-32
2023/05/01 03:51:20;;;;;;;4.00;1.40;;;;;;;11.53;67.60;101632.56;4971097;28;111887;-33
2023/05/01 03:53:45;;;;;;;3.90;1.50;;;;;;;11.50;67.53;101628.19;4971794;28;96961;-31
2023/05/01 03:56:10;;;;;;;1.50;1.02;;;;;;;11.52;67.55;101631.69;4972104;28;97374;-32
2023/05/01 03:58:36;;;;;;;1.73;1.02;;;;;;;11.48;67.77;101630.97;4972337;28;97534;-32
2023/05/01 04:01:02;;;;;;;2.28;1.33;;;;;;;11.47;67.99;101629.22;4972068;28;96653;-32
2023/05/01 04:03:27;;;;;;;2.55;1.30;;;;;;;11.48;67.86;101630.97;4971890;28;96805;-32
2023/05/01 04:05:53;;;;;;;1.55;1.20;;;;;;;11.46;67.74;101621.16;4971587;28;101304;-32
2023/05/01 04:08:18;;;;;;;2.05;1.20;;;;;;;11.43;67.33;101621.31;4971767;28;98857;-32
2023/05/01 04:10:43;;;;;;;2.03;1.27;;;;;;;11.41;67.62;101624.09;4972144;28;96698;-32
2023/05/01 04:13:09;;;;;;;3.38;1.40;;;;;;;11.40;67.73;101622.38;4972168;28;96689;-33
2023/05/01 04:15:35;;;;;;;7.47;1.60;;;;;;;11.40;67.90;101613.34;4971271;28;97931;-33
2023/05/01 04:18:00;;;;;;;1.48;1.05;;;;;;;11.40;67.87;101616.06;4971504;28;99959;-31
2023/05/01 04:20:26;;;;;;;3.50;1.65;;;;;;;11.38;67.88;101621.56;4971920;28;96680;-32
2023/05/01 04:22:51;;;;;;;3.60;1.30;;;;;;;11.43;67.48;101627.63;4971586;28;96866;-31
2023/05/01 04:25:16;;;;;;;3.08;1.25;;;;;;;11.42;67.76;101620.44;4971666;28;97916;-32
2023/05/01 04:27:42;;;;;;;3.97;1.15;;;;;;;11.45;67.08;101616.69;4971717;28;97890;-32
2023/05/01 04:30:08;;;;;;;1.75;1.23;;;;;;;11.46;67.76;101618.44;4974705;28;96631;-31
2023/05/01 04:32:34;;;;;;;1.48;1.00;;;;;;;11.43;66.99;101616.75;4974016;28;96797;-31
2023/05/01 04:34:59;;;;;;;2.55;1.17;;;;;;;11.41;67.47;101613.25;4974618;28;98343;-32
2023/05/01 04:37:25;;;;;;;2.47;1.30;;;;;;;11.42;66.87;101609.59;4974846;28;97866;-31
2023/05/01 04:39:50;;;;;;;1.83;1.20;;;;;;;11.45;67.59;101623.00;4974525;28;96733;-31
2023/05/01 04:42:16;;;;;;;2.28;1.40;;;;;;;11.44;67.79;101609.50;4975015;28;96762;-32
2023/05/01 04:44:41;;;;;;;4.07;1.42;;;;;;;11.39;67.24;101607.06;4974815;28;97900;-32
2023/05/01 04:47:07;;;;;;;2.38;1.13;;;;;;;11.42;66.91;101606.88;4974470;28;97830;-32
2023/05/01 04:49:33;;;;;;;3.60;1.50;;;;;;;11.42;67.35;101604.19;4974761;28;97700;-32
2023/05/01 04:51:58;;;;;;;3.35;1.20;;;;;;;11.45;67.17;101613.97;4974380;28;96811;-31
2023/05/01 04:54:24;;;;;;;2.05;1.00;;;;;;;11.43;67.42;101605.03;4974602;28;98074;-32
2023/05/01 04:56:50;;;;;;;3.60;1.30;;;;;;;11.43;67.16;101605.91;4973233;28;100978;-33
2023/05/01 04:59:16;;;;;;;4.60;1.35;;;;;;;11.41;67.27;101601.53;4974487;28;96518;-32
2023/05/01 05:01:41;;;;;;;3.33;1.50;;;;;;;11.44;67.25;101612.22;4973323;28;96785;-32
2023/05/01 05:04:06;;;;;;;3.75;1.63;;;;;;;11.43;67.09;101599.63;4974080;28;97409;-33
2023/05/01 05:06:32;;;;;;;1.85;1.27;;;;;;;11.46;67.26;101611.19;4974277;28;97245;-31
2023/05/01 05:08:57;;;;;;;1.98;1.25;;;;;;;11.44;67.16;101596.84;4974576;28;96468;-32
2023/05/01 05:11:23;;;;;;;1.98;1.17;;;;;;;11.48;67.07;101608.38;4974495;28;96755;-31
2023/05/01 05:13:48;;;;;;;2.60;1.65;;;;;;;11.47;66.96;101607.53;4972756;28;99241;-32
2023/05/01 05:16:14;;;;;;;3.25;1.50;;;;;;;11.45;67.21;101609.44;4974585;28;97421;-32
2023/05/01 05:18:39;;;;;;;1.77;1.17;;;;;;;11.46;66.97;101615.72;4974468;28;96620;-32
2023/05/01 05:21:05;;;;;;;2.55;1.45;;;;;;;11.46;67.21;101605.78;4974123;28;96830;-33
2023/05/01 05:23:31;;;;;;;2.35;1.23;;;;;;;11.46;67.67;101608.50;4974036;28;97961;-31
2023/05/01 05:26:00;;;;;;;3.53;1.60;;;;;;;11.46;67.35;101611.19;4972662;28;101225;-32
2023/05/01 05:28:25;;;;;;;2.13;1.40;;;;;;;11.51;67.39;101604.63;4972333;28;97543;-32
2023/05/01 05:30:51;;;;;;;2.30;1.48;;;;;;;11.51;67.52;101607.34;4972523;28;96780;-34
2023/05/01 05:33:17;;;;;;;1.65;1.10;;;;;;;11.51;67.44;101602.78;4972411;28;100831;-32
2023/05/01 05:35:42;;;;;;;2.75;1.40;;;;;;;11.55;67.38;101608.94;4972376;28;99445;-32
2023/05/01 05:38:07;;;;;;;2.45;1.35;;;;;;;11.54;67.48;101607.19;4973784;28;96512;-32
2023/05/01 05:40:33;;;;;;;4.15;1.20;;;;;;;11.57;67.09;101605.19;4973483;28;96772;-33
2023/05/01 05:42:58;;;;;;;5.65;1.70;;;;;;;11.58;67.01;101603.34;4973541;28;99155;-32
2023/05/01 05:45:24;;;;;;;2.08;1.25;;;;;;;11.61;67.23;101606.78;4974037;28;99253;-34
2023/05/01 05:47:49;;;;;;;1.73;1.25;;;;;;;11.62;67.02;101602.22;4972684;28;96826;-32
2023/05/01 05:50:15;;;;;;;2.00;1.25;;;;;;;11.67;66.90;101606.44;4973409;28;96857;-31
2023/05/01 05:52:43;;;;;;;2.17;1.45;;;;;;;11.68;66.87;101599.19;4972999;28;99711;-32
2023/05/01 05:55:08;;;;;;;3.88;1.50;;;;;;;11.69;66.55;101599.09;4973745;28;98250;-32
2023/05/01 05:57:36;;;;;;;8.43;1.50;;;;;;;11.73;66.54;101605.25;4973703;28;96664;-31
2023/05/01 06:00:04;;;;;;;2.13;1.40;;;;;;;11.75;66.83;101603.34;4972059;28;96794;-31
2023/05/01 06:02:30;;;;;;;2.72;1.50;;;;;;;11.76;66.48;101593.34;4973449;28;98406;-32
2023/05/01 06:04:56;;;;;;;6.28;1.25;;;;;;;11.81;66.81;101597.53;4971729;28;100761;-31
2023/05/01 06:07:23;;;;;;;2.38;1.27;;;;;;;11.84;66.43;101600.09;4973686;28;96716;-32
2023/05/01 06:09:48;;;;;;;2.60;1.55;;;;;;;11.87;66.17;101594.53;4972424;28;96728;-32
2023/05/01 06:12:13;;;;;;;3.67;1.45;;;;;;;11.85;66.53;101595.56;4973101;28;104353;-31
2023/05/01 06:14:39;;;;;;;4.60;1.92;;;;;;;11.92;66.79;101606.97;4973178;28;97804;-32
2023/05/01 06:17:06;;;;;;;4.70;1.63;;;;;;;11.92;66.42;101602.44;4971403;28;96911;-31
2023/05/01 06:19:31;;;;;;;2.72;1.58;;;;;;;11.94;66.17;101605.03;4971639;28;98149;-32
2023/05/01 06:21:56;;;;;;;4.03;1.65;;;;;;;11.95;66.05;101602.25;4973162;28;99298;-33
2023/05/01 06:24:22;;;;;;;2.95;1.77;;;;;;;12.00;66.13;101602.00;4973112;28;97306;-32
2023/05/01 06:26:47;;;;;;;4.68;1.75;;;;;;;11.96;65.76;101601.28;4972992;28;96661;-32
2023/05/01 06:29:12;;;;;;;2.33;1.52;;;;;;;11.96;66.05;101595.84;4973103;28;97919;-31
2023/05/01 06:31:38;;;;;;;4.35;1.90;;;;;;;12.03;66.70;101608.13;4972827;28;100413;-31
2023/05/01 06:34:03;;;;;;;5.47;1.50;;;;;;;12.05;66.40;101608.94;4972215;28;97719;-32
2023/05/01 06:36:28;;;;;;;2.75;1.38;;;;;;;12.09;66.11;101598.78;4973143;28;97284;-31
2023/05/01 06:38:54;;;;;;;3.50;1.50;;;;;;;12.09;66.04;101594.22;4973109;28;96804;-31
2023/05/01 06:41:20;;;;;;;1.70;1.10;;;;;;;12.14;65.82;101601.25;4972203;28;99819;-31
2023/05/01 06:43:46;;;;;;;2.13;1.55;;;;;;;12.17;66.37;101606.50;4971454;28;101033;-32
2023/05/01 06:46:11;;;;;;;3.92;1.60;;;;;;;12.18;65.79;101597.38;4972712;28;96723;-31
2023/05/01 06:48:37;;;;;;;4.50;1.77;;;;;;;12.23;65.69;101606.16;4972663;28;96671;-31
2023/05/01 06:51:02;;;;;;;3.17;1.58;;;;;;;12.25;65.85;101605.13;4971897;28;99211;-32
2023/05/01 06:53:27;;;;;;;2.55;1.33;;;;;;;12.25;65.86;101601.50;4973121;28;97369;-31
2023/05/01 06:55:53;;;;;;;6.70;1.77;;;;;;;12.26;65.55;101600.53;4972359;28;96621;-33
2023/05/01 06:58:18;;;;;;;3.30;1.80;;;;;;;12.25;65.65;101602.41;4973097;28;96454;-32
2023/05/01 07:00:43;;;;;;;3.78;2.30;;;;;;;12.27;65.47;101600.44;4972842;28;97280;-32
2023/05/01 07:03:09;;;;;;;5.53;2.13;;;;;;;12.33;65.58;101608.25;4972714;28;98057;-31
2023/05/01 07:05:34;;;;;;;3.50;2.03;;;;;;;12.36;65.36;101599.06;4972072;28;96414;-32
2023/05/01 07:08:00;;;;;;;5.35;1.70;;;;;;;12.39;65.66;101611.59;4972766;28;96754;-32
2023/05/01 07:10:25;;;;;;;4.68;1.58;;;;;;;12.40;65.29;101611.50;4971035;28;100810;-32
2023/05/01 07:12:51;;;;;;;2.92;1.85;;;;;;;12.41;65.33;101604.22;4972474;28;97779;-31
2023/05/01 07:15:16;;;;;;;3.15;1.70;;;;;;;12.41;65.20;101612.38;4972370;28;96509;-32
2023/05/01 07:17:41;;;;;;;3.72;1.55;;;;;;;12.39;65.28;101609.72;4972685;28;96854;-31
2023/05/01 07:20:07;;;;;;;2.65;1.70;;;;;;;12.39;65.27;101619.72;4972511;28;97400;-32
2023/05/01 07:22:33;;;;;;;2.65;1.40;;;;;;;12.37;64.86;101616.22;4972648;28;99229;-32
2023/05/01 07:25:00;;;;;;;2.33;1.38;;;;;;;12.37;64.70;101614.41;4972510;28;96583;-32
2023/05/01 07:27:25;;;;;;;2.35;1.33;;;;;;;12.41;65.02;101612.38;4972317;28;96642;-31
2023/05/01 07:29:51;;;;;;;2.85;1.75;;;;;;;12.39;64.97;101615.16;4971743;28;97708;-32
2023/05/01 07:32:16;;;;;;;2.22;1.45;;;;;;;12.37;64.93;101608.97;4972239;28;98352;-33
2023/05/01 07:34:41;;;;;;;3.40;1.73;;;;;;;12.41;64.91;101613.25;4972436;28;96562;-31
2023/05/01 07:37:07;;;;;;;3.22;1.70;;;;;;;12.44;64.83;101610.38;4972162;28;96839;-32
2023/05/01 07:39:32;;;;;;;2.85;1.52;;;;;;;12.45;64.97;101603.97;4972255;28;97607;-31
2023/05/01 07:41:57;;;;;;;2.65;1.60;;;;;;;12.50;64.64;101609.13;4972279;28;97804;-31
2023/05/01 07:44:23;;;;;;;3.63;1.80;;;;;;;12.47;64.75;101598.47;4972318;28;96606;-31
2023/05/01 07:46:48;;;;;;;3.00;1.67;;;;;;;12.51;64.91;101594.56;4971580;28;96881;-32
2023/05/01 07:49:13;;;;;;;4.78;1.73;;;;;;;12.59;64.78;101603.19;4972213;28;97784;-34
2023/05/01 07:51:39;;;;;;;2.67;1.60;;;;;;;12.67;64.23;101603.59;4972085;28;97261;-31
2023/05/01 07:54:04;;;;;;;3.53;1.73;;;;;;;12.69;64.52;101593.50;4971860;28;96654;-32
2023/05/01 07:56:30;;;;;;;2.13;1.42;;;;;;;12.77;64.65;101603.94;4971729;28;96847;-32
2023/05/01 07:58:56;;;;;;;3.33;1.77;;;;;;;12.84;64.77;101604.44;4971905;28;97675;-31
2023/05/01 08:01:21;;;;;;;4.22;2.00;;;;;;;12.89;64.63;101605.91;4971823;28;98367;-34
2023/05/01 08:03:47;;;;;;;2.60;1.45;;;;;;;12.96;64.23;101595.56;4974958;28;96471;-33
2023/05/01 08:06:12;;;;;;;4.50;2.08;;;;;;;13.00;64.82;101596.28;4975603;28;96778;-32
2023/05/01 08:08:38;;;;;;;2.92;1.70;;;;;;;12.99;64.92;101592.69;4975461;28;98403;-32
2023/05/01 08:11:03;;;;;;;2.25;1.58;;;;;;;13.00;64.51;101602.56;4975536;28;99387;-31
2023/05/01 08:13:28;;;;;;;3.95;1.83;;;;;;;12.96;64.64;101601.00;4975280;28;96606;-33
2023/05/01 08:15:54;;;;;;;3.55;1.85;;;;;;;13.00;65.08;101609.88;4975198;28;96859;-32
2023/05/01 08:18:19;;;;;;;4.45;1.88;;;;;;;12.97;65.14;101610.94;4974455;28;98820;-31
2023/05/01 08:20:47;;;;;;;2.65;1.67;;;;;;;12.99;64.97;101617.16;4974811;28;99712;-31
2023/05/01 08:23:16;;;;;;;5.40;1.85;;;;;;;13.02;64.56;101610.66;4973990;28;96670;-31
2023/05/01 08:25:43;;;;;;;3.90;1.88;;;;;;;12.97;64.57;101597.34;4973771;28;96807;-33
2023/05/01 08:28:09;;;;;;;3.65;1.95;;;;;;;13.01;64.51;101606.16;4973541;28;101106;-32
2023/05/01 08:30:34;;;;;;;3.10;1.60;;;;;;;12.98;64.17;101603.63;4974539;28;99561;-31
2023/05/01 08:33:00;;;;;;;4.03;2.05;;;;;;;13.04;64.73;101612.31;4974859;28;96564;-32
2023/05/01 08:35:25;;;;;;;4.28;1.98;;;;;;;13.06;64.97;101609.47;4975646;28;96803;-31
2023/05/01 08:37:50;;;;;;;3.00;1.67;;;;;;;13.08;65.16;101613.84;4974850;28;97410;-31
2023/05/01 08:40:16;;;;;;;3.38;1.92;;;;;;;13.04;65.30;101614.13;4974638;28;98812;-31
2023/05/01 08:42:41;;;;;;;3.20;1.88;;;;;;;13.11;65.22;101621.84;4974249;28;96444;-31
2023/05/01 08:45:09;;;;;;;5.15;2.13;;;;;;;13.13;65.09;101629.91;4974965;28;96779;-32
2023/05/01 08:47:39;;;;;;;3.90;1.88;;;;;;;13.14;65.29;101618.06;4972653;28;100875;-33
2023/05/01 08:50:10;;;;;;;6.10;2.28;;;;;;;13.16;65.62;101629.75;4973975;28;96618;-33
2023/05/01 08:52:41;;;;;;;3.35;2.13;;;;;;;13.17;64.88;101629.63;4973557;28;96854;-32
2023/05/01 08:55:11;;;;;;;6.35;2.60;;;;;;;13.18;65.14;101622.38;4973378;28;96735;-32
2023/05/01 08:57:37;;;;;;;3.55;2.05;;;;;;;13.26;64.84;101635.50;4973068;28;101121;-32
2023/05/01 09:00:04;;;;;;;4.40;2.40;;;;;;;13.25;64.87;101628.28;4974688;28;97886;-32
2023/05/01 09:02:33;;;;;;;6.07;2.20;;;;;;;13.33;65.62;101631.47;4974499;28;96493;-31
2023/05/01 09:05:00;;;;;;;4.00;2.20;;;;;;;13.33;64.52;101634.19;4973245;28;96522;-31
2023/05/01 09:07:26;;;;;;;3.85;2.58;;;;;;;13.36;64.34;101631.28;4972395;28;101233;-33
2023/05/01 09:09:51;;;;;;;8.13;2.67;;;;;;;13.41;64.46;101634.59;4974248;28;99829;-32
2023/05/01 09:12:26;;;;;;;3.85;2.60;;;;;;;13.45;64.30;101638.91;4974516;28;96618;-31
2023/05/01 09:14:54;;;;;;;5.40;2.40;;;;;;;13.49;64.25;101632.31;4973653;28;96873;-32
2023/05/01 09:17:21;;;;;;;5.68;2.92;;;;;;;13.54;64.74;101641.06;4972846;28;101277;-32
2023/05/01 09:19:48;;;;;;;4.32;2.42;;;;;;;13.57;64.38;101638.13;4972619;28;101271;-31
2023/05/01 09:22:15;;;;;;;7.53;2.47;;;;;;;13.62;64.43;101650.59;4974364;28;96588;-31
2023/05/01 09:24:40;;;;;;;4.90;2.13;;;;;;;13.63;64.50;101650.47;4973172;28;96836;-33
2023/05/01 09:27:06;;;;;;;5.47;2.55;;;;;;;13.62;65.33;101647.88;4972591;28;99745;-31
2023/05/01 09:29:43;;;;;;;4.68;2.25;;;;;;;13.58;64.65;101656.22;4972520;28;100965;-31
2023/05/01 09:32:24;;;;;;;4.75;2.30;;;;;;;13.62;64.82;101664.22;4973409;28;96572;-32
2023/05/01 09:34:51;;;;;;;3.08;2.00;;;;;;;13.52;64.89;101663.91;4972628;28;96820;-31
2023/05/01 09:37:31;;;;;;;3.67;2.25;;;;;;;13.51;65.47;101662.13;4972268;28;100569;-32
2023/05/01 09:40:15;;;;;;;3.63;2.30;;;;;;;13.45;65.74;101667.97;4972308;28;100351;-31
2023/05/01 09:42:51;;;;;;;4.60;2.30;;;;;;;13.37;66.62;101658.41;4973934;28;96650;-31
2023/05/01 09:45:18;;;;;;;3.42;2.10;;;;;;;13.36;67.29;101659.38;4973911;28;96740;-32
2023/05/01 09:47:45;;;;;;;8.43;2.80;;;;;;;13.29;66.78;101665.28;4971656;28;101339;-31
2023/05/01 09:50:27;;;;;;;7.38;2.10;;;;;;;13.27;66.70;101661.72;4972713;28;100764;-33
2023/05/01 09:52:52;;;;;;;4.85;2.33;;;;;;;13.20;67.28;101652.19;4972470;28;96942;-31
2023/05/01 09:55:18;;;;;;;3.95;2.45;;;;;;;13.17;67.55;101659.56;4974131;28;96860;-31
2023/05/01 09:57:45;;;;;;;3.85;2.55;;;;;;;13.11;69.85;101669.94;4972677;28;99577;-31
2023/05/01 10:00:12;;;;;;;3.72;2.03;;;;;;;13.11;69.32;101665.38;4973421;28;97827;-32
2023/05/01 10:02:38;;;;;;;3.58;2.10;;;;;;;13.02;71.07;101668.63;4972152;28;96651;-32
2023/05/01 10:05:06;;;;;;;3.10;1.98;;;;;;;12.96;71.44;101661.69;4973543;28;96814;-31
2023/05/01 10:07:32;;;;;;;6.35;2.13;;;;;;;12.94;71.62;101674.53;4973493;28;97938;-33
2023/05/01 10:09:57;;;;;;;6.15;2.78;;;;;;;12.89;71.95;101675.75;4973472;28;97754;-32
2023/05/01 10:12:27;;;;;;;3.83;2.20;;;;;;;12.79;72.96;101669.09;4973541;28;96450;-32
2023/05/01 10:14:54;;;;;;;5.45;2.17;;;;;;;12.73;73.05;101671.22;4973556;28;96607;-31
2023/05/01 10:17:20;;;;;;;3.60;1.83;;;;;;;12.70;72.79;101668.69;4971789;28;100921;-32
2023/05/01 10:19:47;;;;;;;7.25;2.15;;;;;;;12.67;72.40;101659.81;4971768;28;100803;-31
2023/05/01 10:22:13;;;;;;;2.80;1.75;;;;;;;12.66;72.79;101660.78;4971468;28;97596;-32
2023/05/01 10:24:39;;;;;;;2.70;1.52;;;;;;;12.70;72.80;101665.06;4971874;28;96860;-31
2023/05/01 10:27:09;;;;;;;3.60;2.03;;;;;;;12.66;73.31;101671.66;4970619;28;100837;-31
2023/05/01 10:29:38;;;;;;;5.75;2.25;;;;;;;12.62;72.81;101667.34;4971376;28;101077;-31
2023/05/01 10:32:08;;;;;;;3.45;2.00;;;;;;;12.62;73.24;101673.66;4971588;28;96891;-31
2023/05/01 10:34:39;;;;;;;3.35;2.20;;;;;;;12.65;73.47;101672.59;4971866;28;96788;-32
2023/05/01 10:37:12;;;;;;;3.67;1.88;;;;;;;12.66;73.59;101690.69;4971714;28;100813;-33
2023/05/01 10:39:38;;;;;;;5.22;2.17;;;;;;;12.67;73.44;101685.13;4973202;28;98706;-32
2023/05/01 10:42:07;;;;;;;2.15;1.60;;;;;;;12.68;74.08;101694.16;4973045;28;96749;-32
2023/05/01 10:44:35;;;;;;;5.88;1.98;;;;;;;12.71;74.51;101692.16;4971653;28;96904;-32
2023/05/01 10:47:23;;;;;;;3.50;1.90;;;;;;;12.73;74.13;101695.69;4970772;28;100792;-31
2023/05/01 10:50:05;;;;;;;9.77;2.13;;;;;;;12.68;75.38;101695.06;4972810;28;97390;-31
2023/05/01 10:53:10;;;;;;;4.25;1.80;;;;;;;12.65;75.82;101688.91;4971444;28;96761;-32
2023/05/01 10:55:36;;;;;;;3.45;1.70;;;;;;;12.65;75.10;101688.91;4972748;28;96771;-32
2023/05/01 10:58:02;;;;;;;3.25;1.95;;;;;;;12.61;75.21;101690.03;4971224;28;101151;-31
2023/05/01 11:00:28;;;;;;;2.80;1.90;;;;;;;12.64;75.83;101692.59;4972556;28;97861;-32
2023/05/01 11:03:28;;;;;;;4.80;1.90;;;;;;;12.66;76.21;101694.28;4973128;28;96763;-31
2023/05/01 11:06:02;;;;;;;6.93;2.28;;;;;;;12.67;76.24;101690.56;4970296;28;96758;-31
2023/05/01 11:08:30;;;;;;;3.25;1.90;;;;;;;12.69;74.98;101688.66;4967537;28;101034;-31
2023/05/01 11:10:55;;;;;;;3.38;1.75;;;;;;;12.68;75.90;101678.75;4971131;28;99024;-31
2023/05/01 11:13:55;;;;;;;3.50;1.90;;;;;;;12.73;75.77;101687.53;4972168;28;96820;-32
2023/05/01 11:16:42;;;;;;;3.15;1.60;;;;;;;12.79;76.04;101682.69;4972632;28;96668;-31
2023/05/01 11:19:32;;;;;;;2.58;1.63;;;;;;;12.79;77.11;101677.25;4972518;28;101005;-32
2023/05/01 11:21:57;;;;;;;5.65;1.73;;;;;;;12.84;75.93;101669.69;4992012;28;97886;-33
2023/05/01 11:24:31;;;;;;;5.50;1.77;;;;;;;12.89;75.52;101673.03;4992500;28;96590;-33
2023/05/01 11:26:58;;;;;;;3.22;1.98;;;;;;;12.96;76.57;101678.00;4991196;28;96711;-31